Marywood, Indiana
Current Conditions -  °F | °C
As of 11:53 PM on Monday 20 Oct 2014 (Local Time) from KHUF Reporting Station
Clear Clear  
Wind Chill: 54°   Ceiling: Unl
Heat Index: 54°   Visibility: 10mi
Dew Point: 44°   Wind: 5mph
Humidity: 69%   Direction: 330°NNW
Pressure: 29.99"   Gusts: NA
Location:  39.3587°N, 87.4056°W
Report Text: KHUF 210353Z 33004KT 10SM CLR 12/07 A2999 RMK AO2 SLP154 T01220067
Loading
Personal Weather Stations






























Interactive Weather Map
Tropical Storm Tracking
New forecast layout! Learn more

10-Day Weather Forecast

Advertisements
Track Severe Weather on mobile